Time;durP1;ratioP1;P1;durP2;ratioP2;P2;SDS_P1;SDS_P2;PMS_P1;PMS_P2;Temp;Humidity;BMP_temperature;BMP_pressure;BME280_temperature;BME280_humidity;BME280_pressure;Samples;Min_cycle;Max_cycle;Signal;HPM_P1;HPM_P2
2023/02/11 00:01:25;;;;;;;;;;;;;;;3.24;40.88;102805.69;5011572;28;19921;-71
2023/02/11 00:04:17;;;;;;;;;;;;;;;2.80;42.51;102810.00;4997823;28;19917;-71
2023/02/11 00:07:09;;;;;;;;;;;;;;;3.12;42.36;102807.41;5011976;28;19925;-71
2023/02/11 00:10:01;;;;;;;;;;;;;;;3.30;42.11;102813.69;5007346;28;19913;-71
2023/02/11 00:12:51;;;;;;;;;;;;;;;3.55;42.13;102802.19;4976534;28;19917;-71
2023/02/11 00:15:43;;;;;;;;;;;;;;;4.15;41.61;102808.75;5004834;28;19913;-71
2023/02/11 00:18:35;;;;;;;;;;;;;;;4.48;40.78;102809.25;5001533;28;19913;-71
2023/02/11 00:21:27;;;;;;;;;;;;;;;4.45;40.26;102811.59;5011005;28;19913;-71
2023/02/11 00:24:19;;;;;;;;;;;;;;;4.42;40.00;102807.44;4997053;28;20697;-71
2023/02/11 00:27:09;;;;;;;;;;;;;;;4.48;39.62;102808.44;5008488;28;20289;-71
2023/02/11 00:30:01;;;;;;;;;;;;;;;4.40;40.13;102808.72;4994499;28;19914;-71
2023/02/11 00:32:53;;;;;;;;;;;;;;;4.26;39.51;102808.06;5005428;28;20382;-71
2023/02/11 00:35:45;;;;;;;;;;;;;;;4.31;39.27;102808.22;4993082;28;19917;-71
2023/02/11 00:38:37;;;;;;;;;;;;;;;4.16;39.59;102803.16;5011789;28;19914;-70
2023/02/11 00:41:29;;;;;;;;;;;;;;;4.18;40.36;102795.69;5011607;28;19913;-70
2023/02/11 00:44:21;;;;;;;;;;;;;;;3.48;40.10;102796.03;4996737;28;19917;-71
2023/02/11 00:47:13;;;;;;;;;;;;;;;2.14;42.78;102791.34;5011463;28;19914;-71
2023/02/11 00:50:07;;;;;;;;;;;;;;;1.99;43.37;102795.28;5000214;28;19913;-71
2023/02/11 00:52:59;;;;;;;;;;;;;;;2.00;43.57;102797.78;5005447;28;19917;-70
2023/02/11 00:55:51;;;;;;;;;;;;;;;2.18;43.78;102799.00;5012337;28;19913;-70
2023/02/11 00:58:43;;;;;;;;;;;;;;;2.73;42.52;102790.41;5007854;28;19913;-70
2023/02/11 01:01:35;;;;;;;;;;;;;;;2.90;42.17;102805.00;5001165;28;19913;-70
2023/02/11 01:04:27;;;;;;;;;;;;;;;3.16;41.69;102796.00;5015722;28;19917;-71
2023/02/11 01:07:19;;;;;;;;;;;;;;;3.22;41.08;102791.63;5000059;28;19921;-71
2023/02/11 01:10:09;;;;;;;;;;;;;;;3.28;41.11;102788.09;5014728;28;19917;-71
2023/02/11 01:13:01;;;;;;;;;;;;;;;3.37;40.46;102790.31;5012834;28;20301;-70
2023/02/11 01:15:50;;;;;;;;;;;;;;;3.53;40.41;102785.44;4996605;28;19918;-71
2023/02/11 01:18:43;;;;;;;;;;;;;;;3.72;41.02;102784.47;4999737;28;19913;-71
2023/02/11 01:21:34;;;;;;;;;;;;;;;3.75;39.94;102782.19;4996964;28;20377;-71
2023/02/11 01:24:27;;;;;;;;;;;;;;;4.18;39.45;102782.22;5001095;28;19917;-71
2023/02/11 01:27:19;;;;;;;;;;;;;;;4.05;40.98;102786.91;5004312;28;19917;-71
2023/02/11 01:30:09;;;;;;;;;;;;;;;4.02;41.14;102784.63;5011034;28;19914;-71
2023/02/11 01:32:58;;;;;;;;;;;;;;;3.97;40.44;102774.53;4994299;28;19914;-70
2023/02/11 01:35:50;;;;;;;;;;;;;;;3.67;40.43;102778.94;5014866;28;19913;-71
2023/02/11 01:38:42;;;;;;;;;;;;;;;3.44;41.00;102780.34;5002212;28;20289;-70
2023/02/11 01:41:34;;;;;;;;;;;;;;;3.58;40.99;102780.25;4989640;28;19917;-71
2023/02/11 01:44:32;;;;;;;;;;;;;;;3.72;41.01;102787.16;5014424;28;20385;-71
2023/02/11 01:47:25;;;;;;;;;;;;;;;3.92;41.40;102779.75;5001152;28;19913;-70
2023/02/11 01:50:17;;;;;;;;;;;;;;;3.39;41.65;102772.09;5003024;28;19913;-71
2023/02/11 01:59:28;;;;;;;;;;;;;;;3.35;41.73;102768.19;5014492;28;20285;-70
2023/02/11 02:02:21;;;;;;;;;;;;;;;3.47;41.84;102770.19;5013671;28;19980;-71
2023/02/11 02:05:19;;;;;;;;;;;;;;;3.67;42.20;102768.16;5013815;28;19918;-70
2023/02/11 02:08:30;;;;;;;;;;;;;;;3.90;41.26;102768.41;4999836;28;19913;-70
2023/02/11 02:11:24;;;;;;;;;;;;;;;3.90;41.15;102756.81;5002164;28;19913;-70
2023/02/11 02:14:16;;;;;;;;;;;;;;;3.52;42.54;102767.66;5013296;28;20290;-71
2023/02/11 02:17:05;;;;;;;;;;;;;;;3.73;41.89;102768.13;4999544;28;19913;-71
2023/02/11 02:20:13;;;;;;;;;;;;;;;3.38;42.30;102770.44;5008928;28;19913;-70
2023/02/11 02:23:24;;;;;;;;;;;;;;;3.09;43.38;102773.72;5010534;28;19913;-71
2023/02/11 02:26:23;;;;;;;;;;;;;;;3.54;43.08;102762.91;5013927;28;19925;-71
2023/02/11 02:29:32;;;;;;;;;;;;;;;3.87;41.46;102764.28;5013859;28;19914;-71
2023/02/11 02:32:40;;;;;;;;;;;;;;;3.22;41.95;102762.88;5013308;28;19913;-71
2023/02/11 02:35:44;;;;;;;;;;;;;;;2.73;43.27;102765.41;5012820;28;19921;-71
2023/02/11 02:38:40;;;;;;;;;;;;;;;3.10;43.02;102756.53;5002312;28;19913;-71
2023/02/11 02:41:33;;;;;;;;;;;;;;;3.44;43.87;102760.69;4998877;28;19914;-71
2023/02/11 02:44:23;;;;;;;;;;;;;;;3.69;42.50;102744.56;4996430;28;19913;-71
2023/02/11 02:47:15;;;;;;;;;;;;;;;3.57;41.14;102740.94;4987819;28;19913;-71
2023/02/11 02:50:08;;;;;;;;;;;;;;;3.79;41.23;102743.03;5013378;28;19914;-71
2023/02/11 02:53:07;;;;;;;;;;;;;;;3.58;40.81;102731.81;5013178;28;19913;-71
2023/02/11 02:56:02;;;;;;;;;;;;;;;3.81;41.32;102732.03;5008186;28;19917;-70
2023/02/11 02:58:58;;;;;;;;;;;;;;;3.27;41.02;102720.06;4997275;28;19913;-70
2023/02/11 03:01:53;;;;;;;;;;;;;;;2.43;42.04;102728.34;4998313;28;19917;-71
2023/02/11 03:05:01;;;;;;;;;;;;;;;2.35;42.70;102723.19;5011655;28;19921;-71
2023/02/11 03:07:58;;;;;;;;;;;;;;;2.59;43.15;102716.31;5013307;28;19913;-71
2023/02/11 03:10:50;;;;;;;;;;;;;;;3.01;43.53;102717.53;5012783;28;19917;-71
2023/02/11 03:13:44;;;;;;;;;;;;;;;3.02;42.13;102716.50;5001603;28;20375;-71
2023/02/11 03:16:37;;;;;;;;;;;;;;;2.66;43.93;102721.63;4998728;28;19914;-71
2023/02/11 03:19:28;;;;;;;;;;;;;;;2.68;43.70;102727.63;4998014;28;19913;-71
2023/02/11 03:22:22;;;;;;;;;;;;;;;2.91;44.22;102728.75;4997875;28;19917;-71
2023/02/11 03:25:14;;;;;;;;;;;;;;;2.89;43.23;102727.31;4998389;28;19917;-71
2023/02/11 03:28:21;;;;;;;;;;;;;;;2.77;43.48;102720.97;5006261;28;20381;-71
2023/02/11 03:31:24;;;;;;;;;;;;;;;2.67;44.66;102713.38;5012324;28;19913;-71
2023/02/11 03:34:21;;;;;;;;;;;;;;;2.88;43.13;102712.25;5012771;28;19914;-71
2023/02/11 03:37:22;;;;;;;;;;;;;;;3.11;43.21;102715.19;4996886;28;19913;-70
2023/02/11 03:40:21;;;;;;;;;;;;;;;3.10;42.48;102700.09;5009343;28;20381;-71
2023/02/11 03:43:16;;;;;;;;;;;;;;;2.68;43.27;102698.09;5012522;28;19913;-71
2023/02/11 03:46:08;;;;;;;;;;;;;;;2.76;43.68;102692.44;5012491;28;19918;-70
2023/02/11 03:49:02;;;;;;;;;;;;;;;2.99;43.93;102695.44;4996966;28;19913;-71
2023/02/11 03:51:54;;;;;;;;;;;;;;;2.97;43.84;102698.34;5012266;28;19914;-70
2023/02/11 03:54:48;;;;;;;;;;;;;;;2.94;44.14;102695.25;4997984;28;20381;-70
2023/02/11 03:57:39;;;;;;;;;;;;;;;1.21;45.88;102700.41;5011646;28;19918;-71
2023/02/11 04:00:39;;;;;;;;;;;;;;;1.88;46.15;102697.47;5011651;28;20289;-70
2023/02/11 04:03:31;;;;;;;;;;;;;;;2.06;45.56;102700.34;5001552;28;19913;-71
2023/02/11 04:06:23;;;;;;;;;;;;;;;2.13;45.48;102697.66;4986416;28;19917;-71
2023/02/11 04:09:15;;;;;;;;;;;;;;;2.04;44.66;102693.53;5011764;28;19913;-70
2023/02/11 04:12:07;;;;;;;;;;;;;;;1.91;45.27;102690.88;5012024;28;19914;-70
2023/02/11 04:14:59;;;;;;;;;;;;;;;2.21;44.25;102700.09;5012311;28;19917;-70
2023/02/11 04:17:49;;;;;;;;;;;;;;;2.04;44.25;102704.28;5001575;28;19917;-70
2023/02/11 04:20:41;;;;;;;;;;;;;;;1.94;44.70;102683.25;4999777;28;19913;-72
2023/02/11 04:23:28;;;;;;;;;;;;;;;1.94;44.69;102677.03;5011904;28;19917;-70
2023/02/11 04:26:20;;;;;;;;;;;;;;;1.96;44.97;102683.03;4997501;28;20305;-70
2023/02/11 04:29:11;;;;;;;;;;;;;;;2.25;43.74;102687.09;5002702;28;19913;-70
2023/02/11 04:32:03;;;;;;;;;;;;;;;2.39;43.20;102668.03;5000606;28;19914;-70
2023/02/11 04:34:55;;;;;;;;;;;;;;;2.33;43.83;102666.22;4997851;28;19921;-70
2023/02/11 04:37:47;;;;;;;;;;;;;;;2.34;43.83;102678.59;4983911;28;19913;-70
2023/02/11 04:40:36;;;;;;;;;;;;;;;2.34;44.06;102670.53;4999170;28;19917;-70
2023/02/11 04:43:28;;;;;;;;;;;;;;;1.92;43.82;102666.56;5000752;28;19914;-70
2023/02/11 04:46:20;;;;;;;;;;;;;;;2.23;44.29;102662.34;5015583;28;20389;-70
2023/02/11 04:49:14;;;;;;;;;;;;;;;2.17;44.03;102668.53;5016024;28;19913;-70
2023/02/11 04:52:05;;;;;;;;;;;;;;;2.02;44.01;102663.44;5000728;28;19913;-70
2023/02/11 04:54:57;;;;;;;;;;;;;;;1.79;45.40;102669.25;5001482;28;19936;-70
2023/02/11 04:57:49;;;;;;;;;;;;;;;1.69;44.15;102661.63;5005216;28;19913;-70
2023/02/11 05:00:38;;;;;;;;;;;;;;;1.70;44.18;102665.13;5014357;28;19913;-69
2023/02/11 05:03:30;;;;;;;;;;;;;;;1.50;44.60;102665.16;4987338;28;19921;-70
2023/02/11 05:06:22;;;;;;;;;;;;;;;1.61;44.59;102666.38;4988544;28;19917;-70
2023/02/11 05:09:12;;;;;;;;;;;;;;;1.80;44.79;102670.06;5002616;28;20313;-70
2023/02/11 05:12:04;;;;;;;;;;;;;;;1.78;44.50;102669.47;5002862;28;19913;-70
2023/02/11 05:14:56;;;;;;;;;;;;;;;1.86;44.70;102671.91;5002943;28;19913;-70
2023/02/11 05:17:48;;;;;;;;;;;;;;;1.91;43.46;102666.75;5008593;28;20381;-70
2023/02/11 05:20:43;;;;;;;;;;;;;;;1.91;43.97;102669.44;5014050;28;20305;-70
2023/02/11 05:23:35;;;;;;;;;;;;;;;2.31;43.60;102654.88;5000848;28;19918;-69
2023/02/11 05:26:27;;;;;;;;;;;;;;;2.39;43.48;102659.97;5013341;28;19917;-70
2023/02/11 05:29:19;;;;;;;;;;;;;;;1.16;45.27;102668.03;5000484;28;20310;-70
2023/02/11 05:32:11;;;;;;;;;;;;;;;2.05;46.44;102661.13;5001217;28;19913;-72
2023/02/11 05:35:02;;;;;;;;;;;;;;;1.73;43.86;102671.94;5014338;28;19913;-72
2023/02/11 05:37:52;;;;;;;;;;;;;;;1.33;44.15;102669.25;5016152;28;19913;-74
2023/02/11 05:40:41;;;;;;;;;;;;;;;1.30;45.06;102664.31;5001133;28;19914;-73
2023/02/11 05:43:33;;;;;;;;;;;;;;;1.98;44.69;102656.84;5017167;28;19914;-74
2023/02/11 05:46:25;;;;;;;;;;;;;;;2.31;44.04;102662.09;5021053;28;19918;-74
2023/02/11 05:49:18;;;;;;;;;;;;;;;2.23;43.72;102657.78;5002303;28;19914;-74
2023/02/11 05:52:07;;;;;;;;;;;;;;;2.44;43.89;102665.53;5003897;28;19913;-72
2023/02/11 05:54:57;;;;;;;;;;;;;;;2.36;43.10;102663.09;5002765;28;20382;-72
2023/02/11 05:57:49;;;;;;;;;;;;;;;2.19;44.10;102656.53;5013774;28;19913;-72
2023/02/11 06:00:38;;;;;;;;;;;;;;;2.35;43.36;102653.41;5004750;28;19913;-72
2023/02/11 06:03:30;;;;;;;;;;;;;;;2.21;44.01;102654.50;5004217;28;19917;-72
2023/02/11 06:06:20;;;;;;;;;;;;;;;2.52;43.88;102641.16;4986051;28;19917;-72
2023/02/11 06:09:11;;;;;;;;;;;;;;;2.69;43.45;102646.03;5002681;28;19913;-72
2023/02/11 06:12:01;;;;;;;;;;;;;;;2.39;42.56;102651.91;5006651;28;19913;-72
2023/02/11 06:14:53;;;;;;;;;;;;;;;2.14;42.74;102646.44;5000088;28;19913;-72
2023/02/11 06:17:40;;;;;;;;;;;;;;;2.03;44.16;102640.94;5001352;28;19917;-73
2023/02/11 06:20:32;;;;;;;;;;;;;;;2.50;46.60;102640.53;5001209;28;20370;-72
2023/02/11 06:23:21;;;;;;;;;;;;;;;2.15;42.92;102636.53;5002277;28;19913;-72
2023/02/11 06:26:16;;;;;;;;;;;;;;;2.49;46.65;102641.56;5015915;28;19925;-72
2023/02/11 06:29:09;;;;;;;;;;;;;;;2.66;44.70;102641.88;4997416;28;19913;-72
2023/02/11 06:32:01;;;;;;;;;;;;;;;2.73;45.60;102634.63;4984851;28;19921;-72
2023/02/11 06:34:50;;;;;;;;;;;;;;;2.30;42.57;102637.09;5011064;28;20293;-72
2023/02/11 06:37:43;;;;;;;;;;;;;;;2.42;42.94;102634.59;5010472;28;19928;-73
2023/02/11 06:40:35;;;;;;;;;;;;;;;2.34;44.13;102632.94;5025361;28;19920;-74
2023/02/11 06:43:27;;;;;;;;;;;;;;;2.19;43.16;102632.41;5018485;28;19913;-72
2023/02/11 06:46:19;;;;;;;;;;;;;;;2.06;43.83;102635.97;5032822;28;19917;-74
2023/02/11 06:49:11;;;;;;;;;;;;;;;1.90;43.94;102643.63;5012030;28;19913;-74
2023/02/11 06:52:03;;;;;;;;;;;;;;;1.58;44.75;102643.47;4989061;28;19913;-74
2023/02/11 06:54:55;;;;;;;;;;;;;;;1.67;45.82;102646.78;4999474;28;19913;-74
2023/02/11 06:57:47;;;;;;;;;;;;;;;1.57;45.10;102649.91;4987245;28;20004;-74
2023/02/11 07:00:39;;;;;;;;;;;;;;;1.84;44.67;102657.88;5008928;28;19914;-71
2023/02/11 07:03:33;;;;;;;;;;;;;;;2.02;45.96;102650.00;4989628;28;19913;-73
2023/02/11 07:06:25;;;;;;;;;;;;;;;2.26;46.70;102645.78;5010150;28;19921;-73
2023/02/11 07:09:17;;;;;;;;;;;;;;;1.94;44.46;102652.91;4996989;28;19914;-73
2023/02/11 07:12:10;;;;;;;;;;;;;;;1.54;45.26;102658.34;4992723;28;19914;-73
2023/02/11 07:15:00;;;;;;;;;;;;;;;1.80;45.89;102645.94;5007072;28;19914;-73
2023/02/11 07:17:46;;;;;;;;;;;;;;;1.88;45.44;102649.19;5004630;28;19913;-73
2023/02/11 07:20:38;;;;;;;;;;;;;;;1.37;47.17;102653.63;5008267;28;19913;-73
2023/02/11 07:23:30;;;;;;;;;;;;;;;2.00;46.16;102662.81;4997963;28;19921;-74
2023/02/11 07:26:21;;;;;;;;;;;;;;;2.24;46.04;102659.41;5001930;28;19917;-76
2023/02/11 07:29:11;;;;;;;;;;;;;;;2.27;45.97;102664.38;5010577;28;19916;-75
2023/02/11 07:32:00;;;;;;;;;;;;;;;2.56;46.65;102674.56;4998096;28;19913;-75
2023/02/11 07:34:52;;;;;;;;;;;;;;;2.52;44.95;102668.00;5001028;28;19913;-74
2023/02/11 07:37:42;;;;;;;;;;;;;;;2.29;45.27;102678.41;5016484;28;19922;-74
2023/02/11 07:40:31;;;;;;;;;;;;;;;2.40;44.78;102680.44;5005713;28;20004;-72
2023/02/11 07:43:23;;;;;;;;;;;;;;;2.43;45.16;102674.66;5026478;28;19913;-73
2023/02/11 07:46:19;;;;;;;;;;;;;;;2.45;46.03;102669.88;5022222;28;19917;-74
2023/02/11 07:49:08;;;;;;;;;;;;;;;2.70;45.75;102669.13;5020185;28;19917;-73
2023/02/11 07:52:00;;;;;;;;;;;;;;;2.34;45.86;102667.00;4997216;28;19913;-73
2023/02/11 07:54:52;;;;;;;;;;;;;;;2.16;47.72;102673.09;5020664;28;19914;-73
2023/02/11 07:57:44;;;;;;;;;;;;;;;2.17;48.04;102674.75;5006224;28;19913;-73
2023/02/11 08:00:36;;;;;;;;;;;;;;;2.61;46.81;102673.09;5019553;28;19917;-74
2023/02/11 08:03:27;;;;;;;;;;;;;;;2.37;45.44;102670.13;5023657;28;19913;-74
2023/02/11 08:06:19;;;;;;;;;;;;;;;2.77;45.12;102675.31;5010407;28;19918;-74
2023/02/11 08:09:09;;;;;;;;;;;;;;;2.54;46.10;102673.13;5000514;28;19913;-73
2023/02/11 08:12:01;;;;;;;;;;;;;;;2.89;45.63;102679.78;5019306;28;20329;-73
2023/02/11 08:14:51;;;;;;;;;;;;;;;2.79;45.68;102675.91;5022736;28;20293;-73
2023/02/11 08:17:42;;;;;;;;;;;;;;;2.46;47.17;102678.75;5005101;28;19913;-73
2023/02/11 08:20:35;;;;;;;;;;;;;;;2.34;47.15;102681.28;5018613;28;19913;-73
2023/02/11 08:23:27;;;;;;;;;;;;;;;2.15;47.77;102682.16;4986394;28;20297;-72
2023/02/11 08:26:17;;;;;;;;;;;;;;;2.13;48.75;102684.25;5014157;28;19917;-73
2023/02/11 08:29:11;;;;;;;;;;;;;;;2.12;48.17;102678.06;5002406;28;19913;-74
2023/02/11 08:32:03;;;;;;;;;;;;;;;2.26;48.70;102678.81;4999247;28;20331;-75
2023/02/11 08:34:54;;;;;;;;;;;;;;;2.30;47.86;102677.38;5027198;28;19913;-76
2023/02/11 08:37:41;;;;;;;;;;;;;;;2.27;49.27;102676.97;5012782;28;19913;-73
2023/02/11 08:40:32;;;;;;;;;;;;;;;2.52;47.87;102688.66;5024420;28;19912;-75
2023/02/11 08:43:22;;;;;;;;;;;;;;;2.53;48.06;102684.94;5019543;28;19913;-76
2023/02/11 08:46:16;;;;;;;;;;;;;;;2.58;48.73;102685.94;5014637;28;19918;-74
2023/02/11 08:49:08;;;;;;;;;;;;;;;2.82;47.26;102678.16;5004335;28;19913;-75
2023/02/11 08:52:02;;;;;;;;;;;;;;;2.63;49.40;102679.94;5014297;28;20301;-75
2023/02/11 08:54:54;;;;;;;;;;;;;;;2.78;48.64;102677.78;5006091;28;19916;-74
2023/02/11 08:57:46;;;;;;;;;;;;;;;2.87;49.15;102689.09;5010906;28;19913;-75
2023/02/11 09:00:31;;;;;;;;;;;;;;;2.96;48.82;102695.84;5019191;28;19913;-77
2023/02/11 09:03:21;;;;;;;;;;;;;;;2.98;49.51;102700.00;5024396;28;19917;-76
2023/02/11 09:06:13;;;;;;;;;;;;;;;3.28;48.72;102705.56;5014198;28;19917;-75
2023/02/11 09:09:00;;;;;;;;;;;;;;;3.58;47.93;102710.31;5019975;28;19913;-73
2023/02/11 09:11:49;;;;;;;;;;;;;;;3.82;47.08;102709.47;5018844;28;19916;-73
2023/02/11 09:14:41;;;;;;;;;;;;;;;3.43;48.11;102707.94;4991131;28;19916;-73
2023/02/11 09:17:29;;;;;;;;;;;;;;;3.36;48.58;102713.38;5009785;28;19913;-73
2023/02/11 09:20:20;;;;;;;;;;;;;;;3.55;48.42;102702.69;4991542;28;19913;-73
2023/02/11 09:23:12;;;;;;;;;;;;;;;3.73;48.33;102708.09;5002865;28;19921;-73
2023/02/11 09:26:07;;;;;;;;;;;;;;;3.84;48.41;102710.09;5011912;28;19922;-73
2023/02/11 09:28:59;;;;;;;;;;;;;;;3.56;49.07;102713.22;5005854;28;19913;-71
2023/02/11 09:31:48;;;;;;;;;;;;;;;3.70;49.66;102705.88;4997829;28;19913;-74
2023/02/11 09:34:35;;;;;;;;;;;;;;;3.87;48.79;102698.88;5002733;28;20390;-73
2023/02/11 09:37:27;;;;;;;;;;;;;;;3.96;49.45;102702.94;5004852;28;20382;-73
2023/02/11 09:40:19;;;;;;;;;;;;;;;4.08;48.61;102701.13;5013863;28;19914;-72
2023/02/11 09:43:23;;;;;;;;;;;;;;;4.00;50.68;102696.06;5010344;28;19917;-71
2023/02/11 09:46:18;;;;;;;;;;;;;;;4.17;50.72;102689.03;5010185;28;19918;-74
2023/02/11 09:49:08;;;;;;;;;;;;;;;4.25;50.50;102698.69;5006526;28;19913;-74
2023/02/11 09:52:07;;;;;;;;;;;;;;;4.13;50.06;102703.97;4983735;28;20293;-74
2023/02/11 09:54:57;;;;;;;;;;;;;;;4.25;50.32;102712.16;5002482;28;20312;-74
2023/02/11 09:57:47;;;;;;;;;;;;;;;4.17;50.71;102715.13;4988124;28;19917;-74
2023/02/11 10:00:55;;;;;;;;;;;;;;;4.39;50.22;102705.56;5008864;28;19914;-74
2023/02/11 10:03:56;;;;;;;;;;;;;;;4.44;49.79;102716.50;5012885;28;19913;-74
2023/02/11 10:06:47;;;;;;;;;;;;;;;4.72;48.90;102710.56;4997521;28;19929;-75
2023/02/11 10:09:49;;;;;;;;;;;;;;;4.90;48.49;102724.00;4997688;28;19913;-73
2023/02/11 10:12:58;;;;;;;;;;;;;;;4.90;47.52;102713.22;5011134;28;19926;-71
2023/02/11 10:16:00;;;;;;;;;;;;;;;5.05;46.93;102708.22;4989527;28;19921;-71
2023/02/11 10:19:04;;;;;;;;;;;;;;;4.78;47.09;102720.41;4990119;28;19921;-72
2023/02/11 10:21:51;;;;;;;;;;;;;;;4.58;46.66;102711.75;5014316;28;20305;-71
2023/02/11 10:24:43;;;;;;;;;;;;;;;4.52;46.78;102704.59;5006971;28;19913;-71
2023/02/11 10:27:37;;;;;;;;;;;;;;;4.58;46.48;102706.38;4995522;28;19917;-71
2023/02/11 10:30:33;;;;;;;;;;;;;;;4.84;45.75;102710.59;4995361;28;19913;-71
2023/02/11 10:33:30;;;;;;;;;;;;;;;5.09;45.30;102705.88;5008404;28;19913;-73
2023/02/11 10:36:22;;;;;;;;;;;;;;;5.25;45.38;102699.84;4983350;28;19917;-71
2023/02/11 10:39:18;;;;;;;;;;;;;;;5.38;45.60;102704.22;5001916;28;20381;-71
2023/02/11 10:42:10;;;;;;;;;;;;;;;5.43;46.12;102709.75;5006525;28;19913;-71
2023/02/11 10:45:06;;;;;;;;;;;;;;;5.74;48.50;102712.09;4983465;28;19918;-71
2023/02/11 10:47:57;;;;;;;;;;;;;;;5.79;46.90;102706.03;5006203;28;19925;-71
2023/02/11 10:50:44;;;;;;;;;;;;;;;5.64;47.54;102700.28;4995445;28;19913;-73
2023/02/11 10:53:37;;;;;;;;;;;;;;;5.64;48.29;102698.38;4994142;28;19917;-72
2023/02/11 10:56:30;;;;;;;;;;;;;;;5.70;49.08;102694.75;5000353;28;19914;-72
2023/02/11 10:59:28;;;;;;;;;;;;;;;5.78;48.66;102693.59;4987233;28;19913;-71
2023/02/11 11:02:23;;;;;;;;;;;;;;;5.84;47.53;102689.97;4987409;28;19913;-73
2023/02/11 11:05:18;;;;;;;;;;;;;;;5.94;46.51;102682.13;5002593;28;19913;-72
2023/02/11 11:08:07;;;;;;;;;;;;;;;6.06;48.32;102665.88;5014861;28;19941;-72
2023/02/11 11:11:06;;;;;;;;;;;;;;;6.18;48.02;102664.00;4997916;28;19913;-72
2023/02/11 11:14:04;;;;;;;;;;;;;;;6.25;47.40;102659.25;4997736;28;19913;-72
2023/02/11 11:16:56;;;;;;;;;;;;;;;6.30;47.07;102659.38;5009081;28;19913;-72
2023/02/11 11:19:43;;;;;;;;;;;;;;;6.69;47.80;102647.75;4985440;28;19921;-72
2023/02/11 11:22:35;;;;;;;;;;;;;;;6.77;46.58;102636.53;5010384;28;19914;-71
2023/02/11 11:25:28;;;;;;;;;;;;;;;6.74;46.29;102641.63;5014279;28;19913;-71
2023/02/11 11:28:23;;;;;;;;;;;;;;;6.70;46.17;102635.06;4989462;28;19918;-71
2023/02/11 11:31:16;;;;;;;;;;;;;;;7.05;45.99;102619.47;4997166;28;19939;-71
2023/02/11 11:34:20;;;;;;;;;;;;;;;6.96;46.27;102612.00;4994639;28;19933;-71
2023/02/11 11:37:28;;;;;;;;;;;;;;;7.64;44.37;102609.81;4993193;28;20787;-71
2023/02/11 11:40:21;;;;;;;;;;;;;;;7.83;44.47;102617.66;5006668;28;20386;-71
2023/02/11 11:43:17;;;;;;;;;;;;;;;7.72;43.82;102609.38;4986658;28;19913;-71
2023/02/11 11:46:11;;;;;;;;;;;;;;;7.80;43.37;102610.88;5005185;28;19913;-69
2023/02/11 11:49:20;;;;;;;;;;;;;;;7.63;43.75;102602.75;5012798;28;19913;-69
2023/02/11 11:52:17;;;;;;;;;;;;;;;7.59;43.61;102603.50;5000267;28;19921;-69
2023/02/11 11:55:12;;;;;;;;;;;;;;;7.86;43.81;102603.63;4992289;28;19913;-69
2023/02/11 11:58:06;;;;;;;;;;;;;;;7.72;43.81;102603.16;4999997;28;19914;-69
2023/02/11 12:01:00;;;;;;;;;;;;;;;7.68;44.25;102600.13;5006766;28;19917;-69
2023/02/11 12:04:06;;;;;;;;;;;;;;;7.70;43.51;102598.00;5006199;28;19917;-69
2023/02/11 12:06:59;;;;;;;;;;;;;;;7.63;44.04;102602.75;5014197;28;19925;-69
2023/02/11 12:10:04;;;;;;;;;;;;;;;7.60;44.56;102592.44;5003318;28;19914;-72
2023/02/11 12:13:04;;;;;;;;;;;;;;;7.69;43.99;102588.25;5008469;28;19914;-72
2023/02/11 12:15:53;;;;;;;;;;;;;;;7.78;43.79;102587.78;4995511;28;19913;-72
2023/02/11 12:19:07;;;;;;;;;;;;;;;7.81;43.77;102577.31;4995404;28;19922;-72
2023/02/11 12:22:05;;;;;;;;;;;;;;;7.93;44.07;102569.84;4972673;28;19913;-71
2023/02/11 12:25:08;;;;;;;;;;;;;;;8.12;42.93;102568.50;5007298;28;19914;-72
2023/02/11 12:28:09;;;;;;;;;;;;;;;8.28;42.38;102565.97;4981570;28;19917;-71
2023/02/11 12:31:08;;;;;;;;;;;;;;;8.25;42.08;102566.44;5005382;28;19913;-72
2023/02/11 12:34:00;;;;;;;;;;;;;;;8.22;42.01;102556.13;5005158;28;19913;-72
2023/02/11 12:36:59;;;;;;;;;;;;;;;8.19;42.34;102552.00;4997873;28;19917;-72
2023/02/11 12:40:02;;;;;;;;;;;;;;;8.32;41.02;102551.66;4990866;28;19921;-72
2023/02/11 12:43:17;;;;;;;;;;;;;;;8.31;39.50;102549.19;4996388;28;20386;-72
2023/02/11 12:46:13;;;;;;;;;;;;;;;8.38;40.40;102547.91;5007934;28;19917;-71
2023/02/11 12:49:08;;;;;;;;;;;;;;;8.43;39.36;102547.97;5020086;28;19913;-72
2023/02/11 12:52:07;;;;;;;;;;;;;;;8.94;36.50;102543.81;4988988;28;20378;-72
2023/02/11 12:55:11;;;;;;;;;;;;;;;9.17;38.81;102542.66;5000057;28;19913;-69
2023/02/11 12:58:02;;;;;;;;;;;;;;;8.99;39.14;102543.03;4996986;28;19913;-71
2023/02/11 13:00:57;;;;;;;;;;;;;;;9.26;38.10;102534.81;4991480;28;19913;-71
2023/02/11 13:03:57;;;;;;;;;;;;;;;9.49;37.40;102533.63;4983770;28;19913;-72
2023/02/11 13:06:50;;;;;;;;;;;;;;;9.51;37.40;102526.84;5002035;28;20000;-73
2023/02/11 13:09:40;;;;;;;;;;;;;;;9.84;36.42;102514.78;5002385;28;19917;-72
2023/02/11 13:15:40;;;;;;;;;;;;;;;10.05;35.14;102518.38;4991674;28;20306;-70
2023/02/11 13:18:29;;;;;;;;;;;;;;;10.09;33.76;102517.56;5001548;28;19913;-69
2023/02/11 13:21:19;;;;;;;;;;;;;;;9.81;34.82;102520.72;5000235;28;19913;-69
2023/02/11 13:24:14;;;;;;;;;;;;;;;9.72;34.10;102504.13;5014241;28;19913;-69
2023/02/11 13:27:22;;;;;;;;;;;;;;;9.86;34.50;102505.25;4997467;28;19917;-70
2023/02/11 13:30:27;;;;;;;;;;;;;;;10.05;32.32;102505.63;5013298;28;19912;-69
2023/02/11 13:33:19;;;;;;;;;;;;;;;10.15;32.40;102508.34;4987918;28;19913;-69
2023/02/11 13:36:14;;;;;;;;;;;;;;;10.34;31.17;102503.25;4985602;28;19914;-69
2023/02/11 13:39:06;;;;;;;;;;;;;;;10.66;30.97;102490.22;5000847;28;19913;-70
2023/02/11 13:42:03;;;;;;;;;;;;;;;10.73;30.24;102487.22;4999672;28;20382;-71
2023/02/11 13:44:55;;;;;;;;;;;;;;;10.68;29.25;102479.06;5014661;28;19913;-70
2023/02/11 13:47:48;;;;;;;;;;;;;;;10.89;29.73;102477.97;5002067;28;19918;-70
2023/02/11 13:50:46;;;;;;;;;;;;;;;10.81;29.16;102483.16;5025969;28;19913;-70
2023/02/11 13:53:46;;;;;;;;;;;;;;;10.81;26.53;102467.63;4994267;28;19913;-69
2023/02/11 13:56:42;;;;;;;;;;;;;;;10.56;27.75;102475.81;5017739;28;19913;-69
2023/02/11 13:59:35;;;;;;;;;;;;;;;10.90;27.90;102468.72;5019639;28;19913;-70
2023/02/11 14:08:57;;;;;;;;;;;;;;;10.98;29.57;102470.03;5007222;28;19917;-72
2023/02/11 14:12:13;;;;;;;;;;;;;;;10.94;28.55;102469.78;5011524;28;19913;-71
2023/02/11 14:15:17;;;;;;;;;;;;;;;11.09;28.38;102469.75;5013335;28;19921;-71
2023/02/11 14:18:26;;;;;;;;;;;;;;;11.19;27.50;102468.91;4995453;28;19913;-72
2023/02/11 14:21:33;;;;;;;;;;;;;;;11.14;27.05;102469.75;4998381;28;19913;-71
2023/02/11 14:24:22;;;;;;;;;;;;;;;11.32;27.33;102460.19;4994168;28;19913;-71
2023/02/11 14:27:24;;;;;;;;;;;;;;;11.42;27.75;102453.88;5009623;28;19925;-71
2023/02/11 14:30:25;;;;;;;;;;;;;;;11.19;27.16;102454.47;5005174;28;19918;-72
2023/02/11 14:33:30;;;;;;;;;;;;;;;11.03;26.63;102451.78;5000014;28;19913;-71
2023/02/11 14:36:35;;;;;;;;;;;;;;;11.11;26.18;102440.38;5009271;28;19917;-71
2023/02/11 14:39:44;;;;;;;;;;;;;;;10.94;25.96;102447.19;5006169;28;19914;-69
2023/02/11 14:42:38;;;;;;;;;;;;;;;11.03;25.88;102438.19;5012362;28;19913;-69
2023/02/11 14:45:30;;;;;;;;;;;;;;;10.89;25.31;102436.31;5008282;28;20301;-69
2023/02/11 14:48:23;;;;;;;;;;;;;;;10.93;25.92;102435.47;5009435;28;19917;-69
2023/02/11 14:51:22;;;;;;;;;;;;;;;10.83;26.01;102440.94;5023395;28;19913;-71
2023/02/11 14:54:21;;;;;;;;;;;;;;;11.01;26.30;102443.09;5011767;28;19913;-70
2023/02/11 14:57:17;;;;;;;;;;;;;;;11.05;26.46;102435.19;5013959;28;19929;-70
2023/02/11 15:00:20;;;;;;;;;;;;;;;10.56;27.05;102429.56;4994948;28;19913;-69
2023/02/11 15:03:24;;;;;;;;;;;;;;;10.72;27.38;102426.53;4993070;28;19913;-69
2023/02/11 15:06:20;;;;;;;;;;;;;;;10.59;27.42;102429.81;5008282;28;19913;-69
2023/02/11 15:09:19;;;;;;;;;;;;;;;10.45;28.06;102422.50;5013210;28;19917;-69
2023/02/11 15:12:17;;;;;;;;;;;;;;;10.59;28.13;102423.56;4996925;28;19914;-69
2023/02/11 15:15:13;;;;;;;;;;;;;;;10.52;28.46;102420.28;4995515;28;19918;-69
2023/02/11 15:18:03;;;;;;;;;;;;;;;10.63;28.43;102411.88;5020637;28;19913;-69
2023/02/11 15:20:53;;;;;;;;;;;;;;;10.55;28.87;102414.31;4969045;28;19914;-69